Trail Creek, Indiana
Current Conditions -  °F | °C
As of 10:35 AM on Monday 24 Nov 2014 (Local Time) from KMGC Reporting Station
Drizzle Drizzle  
Wind Chill: 23°   Ceiling: 900
Heat Index: 36°   Visibility: 7mi
Dew Point: 36°   Wind: 25mph
Humidity: 100%   Direction: 240°WSW
Pressure: 29.26"   Gusts: 40mph
Location:  41.687°N, 86.8677°W
Report Text: KMGC 241635Z AUTO 24022G35KT 7SM DZ OVC009 02/02 A2926 RMK AO2
Loading
Personal Weather Stations






























Interactive Weather Map New forecast layout! Learn more

10-Day Weather Forecast

Advertisements
Track Severe Weather on mobile